createdAt,value
2023-03-24T00:01:58.064Z,82.45
2023-03-24T00:04:25.151Z,82.44
2023-03-24T00:06:52.351Z,82.69
2023-03-24T00:09:19.034Z,82.49
2023-03-24T00:11:45.603Z,81.99
2023-03-24T00:14:12.414Z,82.33
2023-03-24T00:16:42.449Z,82.70
2023-03-24T00:19:10.605Z,82.96
2023-03-24T00:21:37.534Z,82.46
2023-03-24T00:24:04.990Z,82.49
2023-03-24T00:26:32.445Z,82.34
2023-03-24T00:28:59.033Z,82.49
2023-03-24T00:31:26.101Z,83.44
2023-03-24T00:33:53.861Z,84.05
2023-03-24T00:36:23.069Z,83.76
2023-03-24T00:38:50.220Z,83.58
2023-03-24T00:41:20.338Z,82.71
2023-03-24T00:43:48.230Z,83.00
2023-03-24T00:46:27.334Z,84.35
2023-03-24T00:49:02.659Z,84.06
2023-03-24T00:51:30.918Z,83.43
2023-03-24T00:53:57.898Z,83.09
2023-03-24T00:56:26.670Z,83.56
2023-03-24T00:58:54.306Z,83.69
2023-03-24T01:01:22.209Z,84.50
2023-03-24T01:03:50.799Z,85.19
2023-03-24T01:06:18.634Z,85.47
2023-03-24T01:08:45.812Z,85.31
2023-03-24T01:11:13.049Z,85.15
2023-03-24T01:13:41.012Z,85.13
2023-03-24T01:16:07.878Z,84.61
2023-03-24T01:18:35.009Z,84.64
2023-03-24T01:21:01.639Z,84.79
2023-03-24T01:23:30.665Z,84.72
2023-03-24T01:25:57.267Z,85.11
2023-03-24T01:28:25.261Z,84.73
2023-03-24T01:30:52.885Z,84.85
2023-03-24T01:33:19.619Z,85.28
2023-03-24T01:35:46.263Z,85.79
2023-03-24T01:38:13.757Z,86.04
2023-03-24T01:40:42.189Z,85.43
2023-03-24T01:43:17.127Z,85.45
2023-03-24T01:46:06.233Z,85.47
2023-03-24T01:48:43.356Z,85.70
2023-03-24T01:51:12.701Z,86.15
2023-03-24T01:53:42.748Z,86.64
2023-03-24T01:56:10.245Z,86.61
2023-03-24T01:58:43.764Z,85.94
2023-03-24T02:01:18.191Z,85.07
2023-03-24T02:04:11.256Z,86.44
2023-03-24T02:06:41.357Z,87.28
2023-03-24T02:09:08.539Z,86.73
2023-03-24T02:11:36.061Z,86.63
2023-03-24T02:14:05.664Z,87.15
2023-03-24T02:16:51.028Z,86.58
2023-03-24T02:19:38.426Z,86.49
2023-03-24T02:22:06.131Z,86.72
2023-03-24T02:24:35.793Z,87.04
2023-03-24T02:27:11.626Z,87.21
2023-03-24T02:30:02.074Z,87.04
2023-03-24T02:32:29.339Z,86.32
2023-03-24T02:35:09.169Z,86.74
2023-03-24T02:37:35.733Z,87.47
2023-03-24T02:40:29.102Z,86.88
2023-03-24T02:43:14.640Z,87.09
2023-03-24T02:45:49.917Z,87.75
2023-03-24T02:48:37.654Z,88.48
2023-03-24T02:51:22.346Z,88.79
2023-03-24T02:53:48.879Z,89.09
2023-03-24T02:56:42.810Z,89.88
2023-03-24T02:59:32.253Z,89.32
2023-03-24T03:02:07.207Z,89.81
2023-03-24T03:04:46.131Z,89.86
2023-03-24T03:07:16.786Z,89.92
2023-03-24T03:09:50.928Z,90.14
2023-03-24T03:12:19.512Z,86.92
2023-03-24T03:14:48.469Z,87.88
2023-03-24T03:17:30.789Z,88.36
2023-03-24T03:20:05.056Z,89.38
2023-03-24T03:22:34.301Z,90.14
2023-03-24T03:25:02.524Z,90.10
2023-03-24T03:27:31.314Z,89.64
2023-03-24T03:30:04.670Z,89.60
2023-03-24T03:32:34.137Z,90.44
2023-03-24T03:35:06.859Z,90.22
2023-03-24T03:37:36.593Z,90.39
2023-03-24T03:40:09.779Z,90.19
2023-03-24T03:42:39.472Z,90.00
2023-03-24T03:45:08.347Z,89.43
2023-03-24T03:47:35.702Z,88.86
2023-03-24T03:50:02.809Z,89.13
2023-03-24T03:52:31.003Z,89.37
2023-03-24T03:54:58.533Z,89.64
2023-03-24T03:57:25.483Z,89.66
2023-03-24T04:00:15.630Z,89.42
2023-03-24T04:03:02.044Z,90.32
2023-03-24T04:05:35.117Z,89.73
2023-03-24T04:08:12.655Z,89.19
2023-03-24T04:11:14.164Z,89.31
2023-03-24T04:14:06.840Z,89.43
2023-03-24T04:17:16.221Z,89.54
2023-03-24T04:19:55.842Z,89.48
2023-03-24T04:22:39.947Z,90.29
2023-03-24T04:25:20.543Z,90.55
2023-03-24T04:27:49.879Z,89.95
2023-03-24T04:30:30.441Z,89.43
2023-03-24T04:33:04.149Z,89.85
2023-03-24T04:35:36.547Z,89.90
2023-03-24T04:38:23.154Z,90.24
2023-03-24T04:40:58.055Z,91.13
2023-03-24T04:43:28.047Z,90.51
2023-03-24T04:45:57.995Z,89.73
2023-03-24T04:48:36.532Z,89.17
2023-03-24T04:51:09.244Z,87.62
2023-03-24T04:54:14.189Z,88.90
2023-03-24T04:56:51.913Z,89.37
2023-03-24T04:59:23.776Z,89.15
2023-03-24T05:01:50.725Z,89.64
2023-03-24T05:04:43.093Z,90.48
2023-03-24T05:07:19.307Z,90.79
2023-03-24T05:09:48.804Z,90.45
2023-03-24T05:12:15.352Z,90.76
2023-03-24T05:15:16.966Z,90.36
2023-03-24T05:17:45.984Z,90.73
2023-03-24T05:20:12.803Z,90.25
2023-03-24T05:22:42.598Z,89.89
2023-03-24T05:25:09.513Z,89.98
2023-03-24T05:27:36.265Z,89.94
2023-03-24T05:30:15.129Z,90.02
2023-03-24T05:32:43.453Z,89.84
2023-03-24T05:35:11.931Z,89.88
2023-03-24T05:37:38.920Z,89.11
2023-03-24T05:40:07.045Z,89.01
2023-03-24T05:42:45.267Z,88.74
2023-03-24T05:45:13.848Z,89.29
2023-03-24T05:47:40.985Z,90.04
2023-03-24T05:50:08.915Z,90.60
2023-03-24T05:52:36.361Z,90.23
2023-03-24T05:55:32.039Z,89.34
2023-03-24T05:58:07.527Z,89.62
2023-03-24T06:00:48.156Z,88.10
2023-03-24T06:03:23.468Z,86.87
2023-03-24T06:06:00.361Z,85.64
2023-03-24T06:08:28.601Z,84.28
2023-03-24T06:11:00.419Z,84.08
2023-03-24T06:13:27.064Z,84.61
2023-03-24T06:15:54.648Z,84.15
2023-03-24T06:18:35.275Z,81.58
2023-03-24T06:21:11.429Z,79.38
2023-03-24T06:23:40.062Z,82.07
2023-03-24T06:26:11.494Z,83.11
2023-03-24T06:28:51.846Z,82.62
2023-03-24T06:31:21.330Z,82.97
2023-03-24T06:33:53.301Z,82.95
2023-03-24T06:36:19.888Z,82.03
2023-03-24T06:38:46.884Z,81.02
2023-03-24T06:41:17.674Z,81.02
2023-03-24T06:43:44.538Z,81.45
2023-03-24T06:46:11.408Z,81.47
2023-03-24T06:48:40.979Z,80.10
2023-03-24T06:51:08.405Z,81.88
2023-03-24T06:53:34.961Z,79.84
2023-03-24T06:56:01.853Z,78.91
2023-03-24T06:58:35.282Z,77.79
2023-03-24T07:01:07.226Z,77.43
2023-03-24T07:03:42.961Z,77.90
2023-03-24T07:06:29.857Z,76.61
2023-03-24T07:09:02.749Z,76.95
2023-03-24T07:11:31.643Z,77.58
2023-03-24T07:13:59.815Z,78.36
2023-03-24T07:16:28.113Z,77.40
2023-03-24T07:19:12.981Z,76.81
2023-03-24T07:21:41.462Z,75.20
2023-03-24T07:24:08.145Z,70.80
2023-03-24T07:26:45.581Z,70.43
2023-03-24T07:29:21.644Z,69.85
2023-03-24T07:32:01.931Z,68.81
2023-03-24T07:34:28.800Z,68.53
2023-03-24T07:36:55.551Z,69.09
2023-03-24T07:39:22.109Z,68.23
2023-03-24T07:41:48.575Z,68.82
2023-03-24T07:44:25.732Z,68.66
2023-03-24T07:46:53.458Z,67.36
2023-03-24T07:49:20.893Z,68.51
2023-03-24T07:52:06.654Z,66.64
2023-03-24T07:54:38.540Z,66.86
2023-03-24T07:57:05.082Z,65.63
2023-03-24T07:59:31.809Z,62.41
2023-03-24T08:02:05.772Z,66.16
2023-03-24T08:04:44.829Z,64.97
2023-03-24T08:07:34.970Z,65.08
2023-03-24T08:10:01.480Z,64.24
2023-03-24T08:12:27.911Z,66.14
2023-03-24T08:14:55.264Z,64.06
2023-03-24T08:17:21.937Z,61.18
2023-03-24T08:19:58.882Z,60.08
2023-03-24T08:22:27.245Z,59.07
2023-03-24T08:24:53.720Z,58.59
2023-03-24T08:27:20.482Z,59.67
2023-03-24T08:29:46.962Z,59.95
2023-03-24T08:32:13.782Z,57.68
2023-03-24T08:34:40.305Z,57.73
2023-03-24T08:37:07.149Z,55.62
2023-03-24T08:39:35.834Z,55.59
2023-03-24T08:42:02.464Z,55.19
2023-03-24T08:44:30.571Z,54.15
2023-03-24T08:47:00.278Z,53.46
2023-03-24T08:49:26.721Z,54.52
2023-03-24T08:51:53.199Z,53.61
2023-03-24T08:54:21.747Z,52.32
2023-03-24T08:56:48.253Z,52.38
2023-03-24T08:59:14.980Z,51.27
2023-03-24T09:01:41.932Z,50.06
2023-03-24T09:04:08.452Z,51.03
2023-03-24T09:06:35.067Z,49.16
2023-03-24T09:09:01.609Z,48.21
2023-03-24T09:11:28.118Z,49.26
2023-03-24T09:13:54.608Z,45.67
2023-03-24T09:16:21.815Z,45.55
2023-03-24T09:18:48.332Z,44.35
2023-03-24T09:21:14.795Z,44.17
2023-03-24T09:23:41.349Z,41.86
2023-03-24T09:26:08.111Z,44.26
2023-03-24T09:28:34.742Z,42.75
2023-03-24T09:31:06.073Z,43.96
2023-03-24T09:33:34.715Z,43.66
2023-03-24T09:36:02.615Z,43.01
2023-03-24T09:41:00.720Z,41.10
2023-03-24T09:43:46.129Z,44.50
2023-03-24T09:46:15.666Z,42.89
2023-03-24T09:48:58.064Z,41.99
2023-03-24T09:51:25.966Z,42.01
2023-03-24T09:53:52.432Z,43.24
2023-03-24T09:56:20.813Z,44.51
2023-03-24T09:58:49.898Z,45.10
2023-03-24T10:01:17.184Z,44.17
2023-03-24T10:03:44.531Z,42.16
2023-03-24T10:06:15.390Z,40.59
2023-03-24T10:08:43.107Z,40.58
2023-03-24T10:11:27.268Z,40.21
2023-03-24T10:14:17.095Z,39.09
2023-03-24T10:17:02.224Z,38.13
2023-03-24T10:19:48.536Z,39.56
2023-03-24T10:22:21.820Z,39.29
2023-03-24T10:24:51.315Z,40.04
2023-03-24T10:27:44.191Z,37.82
2023-03-24T10:30:16.783Z,37.04
2023-03-24T10:32:44.159Z,36.13
2023-03-24T10:35:23.227Z,35.65
2023-03-24T10:37:50.516Z,37.05
2023-03-24T10:40:22.616Z,36.48
2023-03-24T10:42:49.840Z,36.65
2023-03-24T10:45:34.972Z,35.49
2023-03-24T10:48:02.280Z,35.97
2023-03-24T10:50:30.326Z,35.00
2023-03-24T10:52:57.626Z,35.17
2023-03-24T10:55:31.284Z,34.86
2023-03-24T10:57:59.111Z,34.58
2023-03-24T11:00:31.498Z,35.81
2023-03-24T11:03:01.058Z,36.02
2023-03-24T11:05:30.655Z,35.26
2023-03-24T11:08:00.649Z,35.14
2023-03-24T11:10:27.437Z,35.45
2023-03-24T11:12:53.895Z,35.84
2023-03-24T11:15:26.202Z,37.09
2023-03-24T11:18:11.145Z,36.94
2023-03-24T11:20:46.192Z,37.29
2023-03-24T11:23:16.908Z,37.42
2023-03-24T11:25:46.185Z,38.37
2023-03-24T11:28:16.927Z,37.63
2023-03-24T11:30:46.715Z,37.82
2023-03-24T11:33:19.083Z,38.33
2023-03-24T11:35:50.299Z,37.20
2023-03-24T11:38:29.856Z,36.78
2023-03-24T11:41:01.210Z,36.83
2023-03-24T11:43:28.170Z,36.42
2023-03-24T11:46:05.940Z,37.04
2023-03-24T11:48:35.264Z,37.20
2023-03-24T11:51:03.126Z,37.09
2023-03-24T11:53:33.920Z,36.91
2023-03-24T11:56:00.805Z,37.12
2023-03-24T11:58:28.063Z,36.67
2023-03-24T12:01:05.099Z,36.75
2023-03-24T12:03:58.371Z,37.20
2023-03-24T12:06:24.974Z,38.81
2023-03-24T12:09:09.821Z,37.31
2023-03-24T12:11:39.347Z,38.10
2023-03-24T12:14:06.039Z,36.64
2023-03-24T12:16:39.954Z,37.05
2023-03-24T12:19:19.183Z,37.12
2023-03-24T12:21:45.824Z,38.95
2023-03-24T12:24:21.440Z,39.07
2023-03-24T12:26:51.718Z,40.17
2023-03-24T12:29:18.181Z,39.19
2023-03-24T12:31:53.901Z,39.53
2023-03-24T12:34:20.682Z,39.69
2023-03-24T12:36:52.890Z,38.98
2023-03-24T12:39:32.065Z,40.26
2023-03-24T12:42:14.199Z,38.66
2023-03-24T12:44:40.812Z,38.71
2023-03-24T12:47:22.697Z,40.60
2023-03-24T12:50:07.973Z,40.45
2023-03-24T12:52:43.891Z,40.56
2023-03-24T12:55:14.704Z,41.78
2023-03-24T12:57:42.839Z,41.57
2023-03-24T13:00:16.143Z,42.47
2023-03-24T13:02:45.896Z,40.40
2023-03-24T13:05:18.494Z,40.82
2023-03-24T13:07:47.536Z,41.57
2023-03-24T13:10:18.123Z,42.49
2023-03-24T13:12:44.584Z,40.35
2023-03-24T13:15:14.452Z,40.90
2023-03-24T13:17:59.618Z,40.90
2023-03-24T13:20:28.315Z,39.93
2023-03-24T13:22:55.567Z,40.09
2023-03-24T13:25:45.132Z,41.76
2023-03-24T13:28:16.637Z,39.61
2023-03-24T13:30:44.436Z,39.88
2023-03-24T13:33:20.196Z,39.14
2023-03-24T13:36:09.196Z,41.08
2023-03-24T13:38:37.791Z,38.97
2023-03-24T13:41:05.499Z,38.56
2023-03-24T13:43:33.599Z,39.35
2023-03-24T13:46:01.422Z,39.21
2023-03-24T13:48:37.624Z,39.30
2023-03-24T13:51:08.860Z,37.41
2023-03-24T13:53:38.114Z,36.63
2023-03-24T13:56:06.117Z,35.47
2023-03-24T13:59:04.636Z,36.04
2023-03-24T14:01:33.300Z,37.24
2023-03-24T14:04:18.706Z,36.66
2023-03-24T14:06:49.825Z,36.25
2023-03-24T14:09:21.176Z,35.37
2023-03-24T14:12:08.659Z,36.55
2023-03-24T14:14:56.980Z,35.97
2023-03-24T14:17:23.575Z,36.65
2023-03-24T14:19:59.144Z,36.71
2023-03-24T14:22:30.651Z,36.19
2023-03-24T14:24:59.417Z,36.89
2023-03-24T14:27:34.986Z,37.25
2023-03-24T14:30:03.941Z,36.58
2023-03-24T14:32:30.461Z,36.98
2023-03-24T14:34:58.199Z,36.23
2023-03-24T14:37:25.762Z,36.28
2023-03-24T14:39:52.781Z,37.53
2023-03-24T14:42:45.741Z,36.63
2023-03-24T14:45:33.536Z,36.54
2023-03-24T14:48:01.457Z,36.42
2023-03-24T14:50:28.814Z,35.74
2023-03-24T14:52:58.689Z,36.08
2023-03-24T14:55:26.401Z,35.93
2023-03-24T14:57:54.372Z,36.23
2023-03-24T15:00:22.888Z,36.07
2023-03-24T15:02:53.386Z,36.19
2023-03-24T15:05:23.143Z,37.17
2023-03-24T15:08:08.543Z,37.64
2023-03-24T15:10:40.932Z,37.60
2023-03-24T15:13:23.669Z,37.66
2023-03-24T15:15:50.508Z,36.37
2023-03-24T15:18:18.129Z,35.42
2023-03-24T15:20:48.587Z,35.30
2023-03-24T15:23:19.996Z,34.68
2023-03-24T15:25:49.414Z,34.34
2023-03-24T15:28:26.708Z,34.09
2023-03-24T15:30:53.900Z,34.13
2023-03-24T15:33:21.752Z,34.38
2023-03-24T15:35:54.276Z,34.67
2023-03-24T15:38:27.345Z,35.71
2023-03-24T15:40:57.856Z,35.86
2023-03-24T15:43:24.563Z,35.98
2023-03-24T15:46:08.728Z,36.18
2023-03-24T15:48:38.704Z,36.65
2023-03-24T15:51:09.745Z,37.26
2023-03-24T15:53:44.934Z,37.23
2023-03-24T15:56:14.487Z,37.64
2023-03-24T15:58:48.852Z,36.98
2023-03-24T16:01:17.499Z,36.61
2023-03-24T16:03:44.910Z,37.18
2023-03-24T16:06:15.947Z,37.60
2023-03-24T16:08:43.285Z,37.51
2023-03-24T16:11:11.886Z,37.19
2023-03-24T16:13:39.347Z,37.74
2023-03-24T16:16:15.058Z,38.00
2023-03-24T16:18:43.423Z,39.05
2023-03-24T16:21:13.042Z,39.65
2023-03-24T16:23:39.953Z,39.94
2023-03-24T16:26:09.313Z,39.44
2023-03-24T16:28:36.238Z,39.08
2023-03-24T16:31:04.589Z,39.94
2023-03-24T16:33:31.389Z,40.76
2023-03-24T16:35:58.238Z,42.43
2023-03-24T16:38:25.438Z,41.03
2023-03-24T16:40:53.518Z,42.05
2023-03-24T16:43:20.389Z,41.80
2023-03-24T16:45:47.711Z,40.09
2023-03-24T16:48:14.144Z,40.07
2023-03-24T16:50:42.281Z,39.79
2023-03-24T16:53:09.146Z,39.45
2023-03-24T16:55:36.449Z,40.12
2023-03-24T16:58:03.366Z,40.25
2023-03-24T17:00:30.064Z,40.75
2023-03-24T17:02:59.791Z,40.30
2023-03-24T17:05:28.422Z,40.20
2023-03-24T17:07:58.247Z,40.45
2023-03-24T17:10:25.586Z,40.34
2023-03-24T17:12:53.975Z,42.43
2023-03-24T17:15:22.280Z,41.82
2023-03-24T17:17:48.756Z,41.92
2023-03-24T17:20:15.869Z,43.02
2023-03-24T17:22:43.849Z,43.18
2023-03-24T17:25:11.603Z,44.16
2023-03-24T17:27:38.638Z,43.08
2023-03-24T17:30:06.632Z,43.22
2023-03-24T17:32:33.612Z,44.00
2023-03-24T17:35:01.366Z,46.00
2023-03-24T17:37:28.742Z,45.10
2023-03-24T17:39:58.202Z,45.14
2023-03-24T17:42:26.391Z,44.96
2023-03-24T17:44:52.937Z,45.60
2023-03-24T17:47:19.385Z,45.66
2023-03-24T17:49:45.927Z,45.61
2023-03-24T17:52:12.408Z,46.24
2023-03-24T17:54:38.912Z,46.57
2023-03-24T17:57:05.507Z,47.92
2023-03-24T17:59:32.747Z,48.17
2023-03-24T18:01:59.265Z,48.68
2023-03-24T18:04:25.854Z,48.79
2023-03-24T18:06:52.418Z,47.76
2023-03-24T18:09:18.932Z,48.37
2023-03-24T18:11:47.718Z,48.84
2023-03-24T18:14:14.327Z,49.48
2023-03-24T18:16:40.953Z,51.23
2023-03-24T18:19:07.563Z,51.51
2023-03-24T18:21:34.117Z,51.23
2023-03-24T18:24:00.744Z,51.57
2023-03-24T18:26:27.925Z,52.60
2023-03-24T18:28:54.452Z,53.55
2023-03-24T18:31:21.709Z,53.21
2023-03-24T18:33:48.794Z,54.78
2023-03-24T18:36:16.571Z,55.39
2023-03-24T18:38:43.561Z,55.89
2023-03-24T18:41:12.732Z,55.91
2023-03-24T18:43:41.194Z,56.20
2023-03-24T18:46:09.717Z,55.96
2023-03-24T18:48:43.758Z,56.40
2023-03-24T18:51:11.130Z,56.79
2023-03-24T18:53:37.723Z,57.07
2023-03-24T18:56:06.005Z,57.17
2023-03-24T18:58:33.772Z,57.16
2023-03-24T19:01:04.650Z,57.21
2023-03-24T19:03:31.210Z,57.62
2023-03-24T19:06:00.962Z,57.66
2023-03-24T19:08:27.464Z,57.92
2023-03-24T19:10:54.513Z,57.60
2023-03-24T19:13:21.168Z,58.14
2023-03-24T19:15:48.352Z,58.59
2023-03-24T19:18:15.454Z,59.34
2023-03-24T19:20:42.313Z,59.41
2023-03-24T19:23:08.986Z,59.60
2023-03-24T19:25:35.543Z,59.78
2023-03-24T19:28:01.999Z,60.07
2023-03-24T19:30:29.434Z,60.13
2023-03-24T19:32:56.772Z,60.80
2023-03-24T19:35:23.681Z,61.32
2023-03-24T19:37:50.235Z,62.59
2023-03-24T19:40:16.725Z,63.54
2023-03-24T19:42:44.954Z,64.02
2023-03-24T19:45:12.677Z,64.76
2023-03-24T19:47:39.212Z,64.65
2023-03-24T19:50:07.409Z,65.27
2023-03-24T19:52:34.226Z,65.27
2023-03-24T19:55:00.894Z,65.94
2023-03-24T19:57:30.404Z,66.24
2023-03-24T19:59:57.337Z,66.71
2023-03-24T20:02:24.741Z,67.25
2023-03-24T20:04:52.042Z,67.71
2023-03-24T20:07:18.709Z,67.08
2023-03-24T20:09:45.359Z,68.09
2023-03-24T20:12:11.840Z,68.26
2023-03-24T20:14:38.320Z,68.86
2023-03-24T20:17:05.243Z,69.49
2023-03-24T20:19:31.828Z,69.05
2023-03-24T20:21:58.283Z,68.54
2023-03-24T20:24:24.761Z,69.38
2023-03-24T20:26:51.617Z,69.33
2023-03-24T20:29:18.254Z,68.91
2023-03-24T20:31:45.149Z,69.30
2023-03-24T20:34:11.670Z,69.70
2023-03-24T20:36:41.771Z,70.14
2023-03-24T20:39:08.223Z,70.16
2023-03-24T20:41:34.897Z,70.19
2023-03-24T20:44:01.364Z,69.65
2023-03-24T20:46:27.832Z,65.22
2023-03-24T20:48:54.333Z,66.96
2023-03-24T20:51:21.996Z,68.58
2023-03-24T20:53:49.855Z,69.53
2023-03-24T20:56:17.256Z,70.22
2023-03-24T20:58:44.693Z,70.39
2023-03-24T21:01:20.563Z,71.63
2023-03-24T21:03:51.440Z,72.39
2023-03-24T21:06:18.617Z,71.90
2023-03-24T21:08:45.526Z,71.12
2023-03-24T21:11:12.402Z,71.73
2023-03-24T21:13:39.504Z,72.58
2023-03-24T21:16:08.229Z,72.90
2023-03-24T21:18:35.930Z,73.33
2023-03-24T21:21:05.302Z,73.13
2023-03-24T21:23:34.278Z,73.78
2023-03-24T21:26:02.270Z,74.13
2023-03-24T21:28:30.834Z,74.05
2023-03-24T21:30:58.576Z,73.83
2023-03-24T21:33:25.454Z,73.30
2023-03-24T21:35:54.602Z,72.35
2023-03-24T21:38:21.174Z,72.51
2023-03-24T21:40:48.118Z,73.11
2023-03-24T21:43:14.817Z,73.36
2023-03-24T21:45:46.328Z,74.67
2023-03-24T21:48:14.066Z,77.72
2023-03-24T21:50:42.668Z,79.19
2023-03-24T21:53:15.361Z,82.39
2023-03-24T21:55:52.402Z,83.66
2023-03-24T21:58:19.321Z,84.55
2023-03-24T22:00:47.451Z,85.98
2023-03-24T22:03:14.089Z,87.40
2023-03-24T22:05:40.720Z,88.67
2023-03-24T22:08:07.679Z,87.62
2023-03-24T22:10:34.987Z,88.29
2023-03-24T22:13:02.366Z,87.44
2023-03-24T22:15:31.995Z,86.31
2023-03-24T22:17:59.539Z,84.87
2023-03-24T22:20:28.163Z,84.83
2023-03-24T22:22:54.648Z,84.32
2023-03-24T22:25:21.165Z,85.97
2023-03-24T22:27:52.695Z,82.65
2023-03-24T22:30:19.757Z,83.46
2023-03-24T22:32:46.261Z,84.89
2023-03-24T22:35:12.761Z,85.23
2023-03-24T22:37:39.224Z,86.48
2023-03-24T22:40:06.700Z,87.53
2023-03-24T22:42:33.241Z,87.77
2023-03-24T22:44:59.741Z,87.26
2023-03-24T22:47:27.400Z,84.08
2023-03-24T22:49:53.942Z,87.90
2023-03-24T22:52:20.694Z,86.53
2023-03-24T22:54:47.348Z,88.18
2023-03-24T22:57:13.816Z,88.38
2023-03-24T22:59:40.464Z,88.00
2023-03-24T23:02:10.065Z,88.50
2023-03-24T23:04:37.209Z,91.93
2023-03-24T23:07:06.194Z,92.75
2023-03-24T23:09:32.696Z,93.73
2023-03-24T23:11:59.199Z,93.93
2023-03-24T23:14:26.415Z,93.48
2023-03-24T23:16:54.280Z,93.57
2023-03-24T23:19:20.911Z,93.88
2023-03-24T23:21:47.347Z,93.98
2023-03-24T23:24:13.922Z,93.48
2023-03-24T23:26:40.360Z,90.11
2023-03-24T23:29:06.790Z,91.56
2023-03-24T23:31:33.444Z,92.40
2023-03-24T23:34:00.204Z,93.09
2023-03-24T23:36:28.335Z,92.46
2023-03-24T23:38:55.233Z,93.10
2023-03-24T23:41:22.315Z,92.49
2023-03-24T23:43:50.039Z,93.76
2023-03-24T23:46:17.103Z,91.02
2023-03-24T23:48:43.605Z,91.85
2023-03-24T23:51:10.462Z,93.60
2023-03-24T23:53:37.327Z,94.82
2023-03-24T23:56:08.891Z,95.00
2023-03-24T23:58:36.444Z,94.88
